createdAt,value
2022-11-19T00:00:07.085Z,31.00
2022-11-19T00:01:07.061Z,32.10
2022-11-19T00:02:07.095Z,31.10
2022-11-19T00:03:07.039Z,31.00
2022-11-19T00:04:07.076Z,31.40
2022-11-19T00:05:07.025Z,33.00
2022-11-19T00:06:07.020Z,33.70
2022-11-19T00:07:07.112Z,30.50
2022-11-19T00:08:07.005Z,28.80
2022-11-19T00:09:07.003Z,32.70
2022-11-19T00:10:07.013Z,32.70
2022-11-19T00:11:09.670Z,32.70
2022-11-19T00:12:07.960Z,33.70
2022-11-19T00:13:08.191Z,33.40
2022-11-19T00:14:06.962Z,33.60
2022-11-19T00:15:06.961Z,31.80
2022-11-19T00:16:06.933Z,33.20
2022-11-19T00:17:06.937Z,29.20
2022-11-19T00:18:06.985Z,33.10
2022-11-19T00:19:06.950Z,32.50
2022-11-19T00:20:06.944Z,32.30
2022-11-19T00:21:08.411Z,34.30
2022-11-19T00:22:06.931Z,29.90
2022-11-19T00:23:06.879Z,31.30
2022-11-19T00:24:06.894Z,30.50
2022-11-19T00:25:06.890Z,32.60
2022-11-19T00:26:06.913Z,31.80
2022-11-19T00:27:06.902Z,29.50
2022-11-19T00:28:06.864Z,29.60
2022-11-19T00:29:06.847Z,32.70
2022-11-19T00:30:19.902Z,32.20
2022-11-19T00:31:08.833Z,30.90
2022-11-19T00:32:06.832Z,32.40
2022-11-19T00:33:07.749Z,32.20
2022-11-19T00:34:06.825Z,31.10
2022-11-19T00:35:06.851Z,30.50
2022-11-19T00:36:06.794Z,33.20
2022-11-19T00:37:06.771Z,32.20
2022-11-19T00:38:06.777Z,29.30
2022-11-19T00:39:06.762Z,32.10
2022-11-19T00:40:06.754Z,31.70
2022-11-19T00:41:06.781Z,33.90
2022-11-19T00:42:06.737Z,32.40
2022-11-19T00:43:06.749Z,31.50
2022-11-19T00:44:06.767Z,31.20
2022-11-19T00:45:06.754Z,30.20
2022-11-19T00:46:06.740Z,32.90
2022-11-19T00:47:06.716Z,30.10
2022-11-19T00:48:06.701Z,31.30
2022-11-19T00:49:06.712Z,30.40
2022-11-19T00:50:06.674Z,29.30
2022-11-19T00:51:06.693Z,32.40
2022-11-19T00:52:06.800Z,32.70
2022-11-19T00:53:06.638Z,34.30
2022-11-19T00:54:07.657Z,31.90
2022-11-19T00:55:06.639Z,32.90
2022-11-19T00:56:06.659Z,30.00
2022-11-19T00:57:06.625Z,33.40
2022-11-19T00:58:06.615Z,30.50
2022-11-19T00:59:07.625Z,32.10
2022-11-19T01:00:06.623Z,32.50
2022-11-19T01:01:08.223Z,32.40
2022-11-19T01:02:06.605Z,30.20
2022-11-19T01:03:06.609Z,29.30
2022-11-19T01:04:06.634Z,30.10
2022-11-19T01:05:06.582Z,29.50
2022-11-19T01:06:06.702Z,29.00
2022-11-19T01:07:06.648Z,26.30
2022-11-19T01:08:06.544Z,32.00
2022-11-19T01:09:06.608Z,30.50
2022-11-19T01:10:06.542Z,31.10
2022-11-19T01:11:06.528Z,28.80
2022-11-19T01:12:06.530Z,30.80
2022-11-19T01:13:06.518Z,28.90
2022-11-19T01:14:06.540Z,29.40
2022-11-19T01:15:06.499Z,28.10
2022-11-19T01:16:06.490Z,30.80
2022-11-19T01:17:06.493Z,30.80
2022-11-19T01:18:06.482Z,27.90
2022-11-19T01:19:06.500Z,30.00
2022-11-19T01:20:06.503Z,29.30
2022-11-19T01:21:06.497Z,29.20
2022-11-19T01:22:06.467Z,27.50
2022-11-19T01:23:06.446Z,30.00
2022-11-19T01:24:06.443Z,28.80
2022-11-19T01:25:06.426Z,30.90
2022-11-19T01:26:06.414Z,29.50
2022-11-19T01:27:06.424Z,22.20
2022-11-19T01:28:06.400Z,31.20
2022-11-19T01:29:06.398Z,29.00
2022-11-19T01:30:06.474Z,30.20
2022-11-19T01:31:06.394Z,26.80
2022-11-19T01:32:06.363Z,26.80
2022-11-19T01:33:06.381Z,27.00
2022-11-19T01:34:06.374Z,29.10
2022-11-19T01:35:06.379Z,27.20
2022-11-19T01:36:06.330Z,25.90
2022-11-19T01:37:06.341Z,27.10
2022-11-19T01:38:06.355Z,28.60
2022-11-19T01:39:06.333Z,28.10
2022-11-19T01:40:06.305Z,28.40
2022-11-19T01:41:06.274Z,27.40
2022-11-19T01:42:07.348Z,27.60
2022-11-19T01:43:06.276Z,28.30
2022-11-19T01:44:06.277Z,29.40
2022-11-19T01:45:06.284Z,29.80
2022-11-19T01:46:06.269Z,28.40
2022-11-19T01:47:06.291Z,29.20
2022-11-19T01:48:06.257Z,28.60
2022-11-19T01:49:06.240Z,26.60
2022-11-19T01:50:06.256Z,25.30
2022-11-19T01:51:06.218Z,24.10
2022-11-19T01:52:06.241Z,28.10
2022-11-19T01:53:06.250Z,26.30
2022-11-19T01:54:06.219Z,29.30
2022-11-19T01:55:06.182Z,28.70
2022-11-19T01:56:06.204Z,28.40
2022-11-19T01:57:06.264Z,28.00
2022-11-19T01:58:06.157Z,27.40
2022-11-19T01:59:06.165Z,28.90
2022-11-19T02:00:06.157Z,25.70
2022-11-19T02:01:06.188Z,25.40
2022-11-19T02:02:06.164Z,29.10
2022-11-19T02:03:06.147Z,23.30
2022-11-19T02:04:06.131Z,28.90
2022-11-19T02:05:06.191Z,26.70
2022-11-19T02:06:06.131Z,27.30
2022-11-19T02:07:06.159Z,27.60
2022-11-19T02:08:06.146Z,27.30
2022-11-19T02:09:06.088Z,23.60
2022-11-19T02:10:06.071Z,27.30
2022-11-19T02:11:06.723Z,24.90
2022-11-19T02:12:06.091Z,28.50
2022-11-19T02:13:06.052Z,28.40
2022-11-19T02:15:39.649Z,28.70
2022-11-19T02:16:31.589Z,26.10
2022-11-19T02:17:32.708Z,26.80
2022-11-19T02:18:32.708Z,26.40
2022-11-19T02:19:32.737Z,25.50
2022-11-19T02:20:32.703Z,28.10
2022-11-19T02:21:32.715Z,30.00
2022-11-19T02:22:32.669Z,29.00
2022-11-19T02:23:32.671Z,24.20
2022-11-19T02:25:04.581Z,26.10
2022-11-19T02:25:32.685Z,28.40
2022-11-19T02:26:32.637Z,29.30
2022-11-19T02:27:32.623Z,26.90
2022-11-19T02:28:32.636Z,27.80
2022-11-19T02:29:32.623Z,29.20
2022-11-19T02:30:32.635Z,30.60
2022-11-19T02:31:32.592Z,28.10
2022-11-19T02:32:32.595Z,26.40
2022-11-19T02:33:32.607Z,30.30
2022-11-19T02:34:32.587Z,27.20
2022-11-19T02:35:32.595Z,27.80
2022-11-19T02:36:32.549Z,30.50
2022-11-19T02:37:32.602Z,25.90
2022-11-19T02:38:32.541Z,29.80
2022-11-19T02:39:32.543Z,30.70
2022-11-19T02:40:32.644Z,26.40
2022-11-19T02:41:32.536Z,24.50
2022-11-19T02:42:32.501Z,25.30
2022-11-19T02:43:32.553Z,28.50
2022-11-19T02:44:32.512Z,28.80
2022-11-19T02:45:32.549Z,25.80
2022-11-19T02:46:32.529Z,26.20
2022-11-19T02:47:32.463Z,27.50
2022-11-19T02:48:32.475Z,27.80
2022-11-19T02:49:32.468Z,27.80
2022-11-19T02:50:32.461Z,26.70
2022-11-19T02:51:32.433Z,24.60
2022-11-19T02:52:32.430Z,27.70
2022-11-19T02:53:32.453Z,23.60
2022-11-19T02:54:32.480Z,26.40
2022-11-19T02:55:32.433Z,26.00
2022-11-19T02:56:32.404Z,25.60
2022-11-19T02:57:32.405Z,27.70
2022-11-19T02:58:32.420Z,25.20
2022-11-19T02:59:32.384Z,23.10
2022-11-19T03:00:32.389Z,27.10
2022-11-19T03:01:32.402Z,25.40
2022-11-19T03:02:32.385Z,26.50
2022-11-19T03:03:32.393Z,27.20
2022-11-19T03:04:32.355Z,26.70
2022-11-19T03:05:32.337Z,24.60
2022-11-19T03:06:32.345Z,23.50
2022-11-19T03:07:32.344Z,25.80
2022-11-19T03:08:32.308Z,25.80
2022-11-19T03:09:32.330Z,24.70
2022-11-19T03:10:32.313Z,28.00
2022-11-19T03:11:32.305Z,26.40
2022-11-19T03:12:32.291Z,26.80
2022-11-19T03:13:32.328Z,26.10
2022-11-19T03:14:32.285Z,23.80
2022-11-19T03:15:32.333Z,25.30
2022-11-19T03:16:32.237Z,25.50
2022-11-19T03:17:32.254Z,25.20
2022-11-19T03:18:32.245Z,22.80
2022-11-19T03:19:32.239Z,25.80
2022-11-19T03:20:32.221Z,25.90
2022-11-19T03:21:32.347Z,26.10
2022-11-19T03:22:32.200Z,25.70
2022-11-19T03:23:32.237Z,25.50
2022-11-19T03:24:32.191Z,25.00
2022-11-19T03:25:32.231Z,25.70
2022-11-19T03:26:32.277Z,24.00
2022-11-19T03:27:32.191Z,25.20
2022-11-19T03:28:32.181Z,22.60
2022-11-19T03:29:32.153Z,22.70
2022-11-19T03:30:32.207Z,25.50
2022-11-19T03:31:32.146Z,25.10
2022-11-19T03:32:32.155Z,24.10
2022-11-19T03:33:32.185Z,24.30
2022-11-19T03:34:32.115Z,23.80
2022-11-19T03:35:32.697Z,23.70
2022-11-19T03:36:32.108Z,23.70
2022-11-19T03:37:32.103Z,20.30
2022-11-19T03:38:32.106Z,22.00
2022-11-19T03:39:32.073Z,24.40
2022-11-19T03:40:32.091Z,23.10
2022-11-19T03:41:32.054Z,23.00
2022-11-19T03:42:32.064Z,22.40
2022-11-19T03:43:32.055Z,23.50
2022-11-19T03:44:32.058Z,24.20
2022-11-19T03:45:32.039Z,24.80
2022-11-19T03:46:32.023Z,23.10
2022-11-19T03:47:32.065Z,23.20
2022-11-19T04:02:51.518Z,10.50
2022-11-19T04:03:51.452Z,13.90
2022-11-19T04:04:52.565Z,20.60
2022-11-19T04:05:53.481Z,21.40
2022-11-19T04:06:52.547Z,19.20
2022-11-19T04:07:52.588Z,21.70
2022-11-19T04:08:52.565Z,20.70
2022-11-19T04:09:52.524Z,21.80
2022-11-19T04:10:52.540Z,20.40
2022-11-19T04:12:36.996Z,20.10
2022-11-19T04:13:37.023Z,21.30
2022-11-19T04:14:38.134Z,21.00
2022-11-19T04:15:38.139Z,19.60
2022-11-19T04:16:38.135Z,22.30
2022-11-19T04:17:38.163Z,22.80
2022-11-19T04:18:38.101Z,22.50
2022-11-19T04:19:38.132Z,22.60
2022-11-19T04:20:38.117Z,22.90
2022-11-19T04:21:38.092Z,22.60
2022-11-19T04:22:38.081Z,22.00
2022-11-19T04:23:38.076Z,20.90
2022-11-19T04:24:38.065Z,23.00
2022-11-19T04:25:38.088Z,22.10
2022-11-19T04:26:38.093Z,22.90
2022-11-19T04:27:38.076Z,22.70
2022-11-19T04:28:38.015Z,22.50
2022-11-19T04:29:38.029Z,20.60
2022-11-19T04:30:38.042Z,21.20
2022-11-19T04:31:38.020Z,21.90
2022-11-19T04:32:37.999Z,21.20
2022-11-19T04:33:37.999Z,22.80
2022-11-19T04:34:37.991Z,21.60
2022-11-19T04:35:37.983Z,21.00
2022-11-19T04:36:37.981Z,20.20
2022-11-19T04:37:37.999Z,19.10
2022-11-19T04:38:37.945Z,20.60
2022-11-19T04:39:37.943Z,19.00
2022-11-19T04:40:37.931Z,19.30
2022-11-19T04:41:37.921Z,19.90
2022-11-19T04:42:37.958Z,22.20
2022-11-19T04:43:37.920Z,20.50
2022-11-19T04:44:37.918Z,21.70
2022-11-19T04:45:37.917Z,22.10
2022-11-19T04:46:37.884Z,22.50
2022-11-19T04:47:37.941Z,21.10
2022-11-19T04:48:37.901Z,20.30
2022-11-19T04:49:37.865Z,20.70
2022-11-19T04:50:37.878Z,20.90
2022-11-19T04:51:37.851Z,21.80
2022-11-19T04:52:41.087Z,21.70
2022-11-19T04:53:38.969Z,21.00
2022-11-19T04:54:37.839Z,18.60
2022-11-19T04:55:37.845Z,20.50
2022-11-19T04:56:37.825Z,18.90
2022-11-19T04:57:37.823Z,19.40
2022-11-19T04:58:37.822Z,20.40
2022-11-19T04:59:37.818Z,19.10
2022-11-19T05:00:37.830Z,20.60
2022-11-19T05:01:37.850Z,20.70
2022-11-19T05:02:37.777Z,20.20
2022-11-19T05:03:37.773Z,19.90
2022-11-19T05:04:37.836Z,19.10
2022-11-19T05:05:37.814Z,19.30
2022-11-19T05:06:37.771Z,18.30
2022-11-19T05:07:37.792Z,20.10
2022-11-19T05:08:37.722Z,20.10
2022-11-19T05:09:37.728Z,18.60
2022-11-19T05:10:37.797Z,20.00
2022-11-19T05:11:37.702Z,19.50
2022-11-19T05:12:37.704Z,18.60
2022-11-19T05:13:37.708Z,19.00
2022-11-19T05:14:37.696Z,17.30
2022-11-19T05:15:37.725Z,18.30
2022-11-19T05:16:37.693Z,19.30
2022-11-19T05:17:38.300Z,18.90
2022-11-19T05:18:37.651Z,19.30
2022-11-19T05:19:37.644Z,18.50
2022-11-19T05:20:37.656Z,17.30
2022-11-19T05:21:37.628Z,18.20
2022-11-19T05:22:37.662Z,19.00
2022-11-19T05:23:37.636Z,14.50
2022-11-19T05:24:37.652Z,18.00
2022-11-19T05:25:37.607Z,17.10
2022-11-19T05:26:37.607Z,16.30
2022-11-19T05:27:37.639Z,15.70
2022-11-19T05:28:39.660Z,18.00
2022-11-19T05:29:38.603Z,16.80
2022-11-19T05:30:37.603Z,18.60
2022-11-19T05:31:37.560Z,16.90
2022-11-19T05:32:37.591Z,16.90
2022-11-19T05:33:37.588Z,18.00
2022-11-19T05:34:37.560Z,18.40
2022-11-19T05:35:37.533Z,16.60
2022-11-19T05:36:37.527Z,18.10
2022-11-19T05:37:37.513Z,18.10
2022-11-19T05:38:37.556Z,18.40
2022-11-19T05:39:37.553Z,17.50
2022-11-19T05:40:37.530Z,15.80
2022-11-19T05:41:37.501Z,17.00
2022-11-19T05:42:37.505Z,16.40
2022-11-19T05:43:37.492Z,16.40
2022-11-19T05:44:37.525Z,16.80
2022-11-19T05:45:37.491Z,17.00
2022-11-19T05:46:37.479Z,16.80
2022-11-19T05:47:37.449Z,16.90
2022-11-19T05:48:37.484Z,17.00
2022-11-19T05:49:37.449Z,17.00
2022-11-19T05:50:37.443Z,17.20
2022-11-19T05:51:37.422Z,17.40
2022-11-19T05:52:37.424Z,17.00
2022-11-19T05:53:37.412Z,17.80
2022-11-19T05:54:37.411Z,17.10
2022-11-19T05:55:37.428Z,18.80
2022-11-19T05:56:37.380Z,19.10
2022-11-19T05:57:37.371Z,18.40
2022-11-19T05:58:37.380Z,18.20
2022-11-19T05:59:42.240Z,19.30
2022-11-19T06:00:39.377Z,19.40
2022-11-19T06:01:37.353Z,17.40
2022-11-19T06:02:37.416Z,17.70
2022-11-19T06:03:37.329Z,21.00
2022-11-19T06:04:37.323Z,17.60
2022-11-19T06:05:40.319Z,18.10
2022-11-19T06:06:38.320Z,18.00
2022-11-19T06:07:37.329Z,21.60
2022-11-19T06:08:37.292Z,26.20
2022-11-19T06:09:37.277Z,23.30
2022-11-19T06:10:37.318Z,24.50
2022-11-19T06:11:37.268Z,22.90
2022-11-19T06:12:40.193Z,27.70
2022-11-19T06:13:38.263Z,26.20
2022-11-19T06:14:37.251Z,25.00
2022-11-19T06:15:37.249Z,18.40
2022-11-19T06:16:37.254Z,17.90
2022-11-19T06:17:37.211Z,17.90
2022-11-19T06:18:37.225Z,16.60
2022-11-19T06:19:37.202Z,17.40
2022-11-19T06:20:37.205Z,15.70
2022-11-19T06:21:37.187Z,17.30
2022-11-19T06:22:37.222Z,17.30
2022-11-19T06:23:38.194Z,15.80
2022-11-19T06:24:37.171Z,16.40
2022-11-19T06:25:37.179Z,15.90
2022-11-19T06:26:37.156Z,16.50
2022-11-19T06:27:37.171Z,17.50
2022-11-19T06:28:37.147Z,16.20
2022-11-19T06:29:37.126Z,17.00
2022-11-19T06:30:37.139Z,17.20
2022-11-19T06:31:37.113Z,15.20
2022-11-19T06:32:37.126Z,17.20
2022-11-19T06:33:37.113Z,17.60
2022-11-19T06:34:37.115Z,16.60
2022-11-19T06:35:37.117Z,15.90
2022-11-19T06:36:41.786Z,16.60
2022-11-19T06:37:39.129Z,16.90
2022-11-19T06:38:37.092Z,18.10
2022-11-19T06:39:37.088Z,18.50
2022-11-19T06:40:37.066Z,15.60
2022-11-19T06:41:37.040Z,15.40
2022-11-19T06:42:37.046Z,16.10
2022-11-19T06:43:37.018Z,15.10
2022-11-19T06:44:37.028Z,15.40
2022-11-19T06:45:37.012Z,15.80
2022-11-19T06:46:36.994Z,14.20
2022-11-19T06:47:37.066Z,16.00
2022-11-19T06:48:36.986Z,16.80
2022-11-19T06:49:36.980Z,15.50
2022-11-19T06:50:37.016Z,14.90
2022-11-19T06:51:36.966Z,15.30
2022-11-19T06:52:36.986Z,15.10
2022-11-19T06:53:36.973Z,14.90
2022-11-19T06:54:41.742Z,14.40
2022-11-19T06:55:38.963Z,15.10
2022-11-19T06:56:36.926Z,15.20
2022-11-19T06:57:36.919Z,15.20
2022-11-19T06:58:36.923Z,16.00
2022-11-19T06:59:36.893Z,15.70
2022-11-19T07:00:37.173Z,15.10
2022-11-19T07:01:36.961Z,16.70
2022-11-19T07:02:36.888Z,15.40
2022-11-19T07:03:36.871Z,15.90
2022-11-19T07:04:36.903Z,15.70
2022-11-19T07:05:36.860Z,14.80
2022-11-19T07:06:36.877Z,15.50
2022-11-19T07:07:36.886Z,14.80
2022-11-19T07:08:36.852Z,15.10
2022-11-19T07:09:36.820Z,15.30
2022-11-19T07:10:36.833Z,15.60
2022-11-19T07:11:36.899Z,15.40
2022-11-19T07:12:36.860Z,16.20
2022-11-19T07:13:37.676Z,16.60
2022-11-19T07:14:36.814Z,16.20
2022-11-19T07:15:36.901Z,14.90
2022-11-19T07:16:36.773Z,15.20
2022-11-19T07:17:36.787Z,14.90
2022-11-19T07:18:36.767Z,14.50
2022-11-19T07:19:36.792Z,14.60
2022-11-19T07:20:36.779Z,14.20
2022-11-19T07:21:36.748Z,14.30
2022-11-19T07:22:36.755Z,13.80
2022-11-19T07:23:36.726Z,13.80
2022-11-19T07:24:36.858Z,14.80
2022-11-19T07:25:36.741Z,14.90
2022-11-19T07:26:36.699Z,14.80
2022-11-19T07:27:36.696Z,15.00
2022-11-19T07:28:36.686Z,14.80
2022-11-19T07:29:36.774Z,14.30
2022-11-19T07:30:36.681Z,13.90
2022-11-19T07:31:36.676Z,15.20
2022-11-19T07:32:36.681Z,14.80
2022-11-19T07:33:36.684Z,15.20
2022-11-19T07:34:36.665Z,15.60
2022-11-19T07:35:36.636Z,14.70
2022-11-19T07:36:36.653Z,13.90
2022-11-19T07:37:36.619Z,12.70
2022-11-19T07:38:37.254Z,14.40
2022-11-19T07:39:37.619Z,14.50
2022-11-19T07:40:36.601Z,15.90
2022-11-19T07:41:36.585Z,13.90
2022-11-19T07:42:36.861Z,12.90
2022-11-19T07:43:36.605Z,14.40
2022-11-19T07:44:36.662Z,14.80
2022-11-19T07:45:36.554Z,13.60
2022-11-19T07:46:36.601Z,15.60
2022-11-19T07:47:36.613Z,14.00
2022-11-19T07:48:36.581Z,13.60
2022-11-19T07:49:36.546Z,14.60
2022-11-19T07:50:36.566Z,16.90
2022-11-19T07:51:36.524Z,16.80
2022-11-19T07:52:36.509Z,18.50
2022-11-19T07:53:36.511Z,16.80
2022-11-19T07:54:36.513Z,15.30
2022-11-19T07:55:36.492Z,14.60
2022-11-19T07:56:36.486Z,15.30
2022-11-19T07:57:36.473Z,17.40
2022-11-19T07:58:36.461Z,14.50
2022-11-19T07:59:36.466Z,14.30
2022-11-19T08:00:36.498Z,14.10
2022-11-19T08:01:36.486Z,17.70
2022-11-19T08:02:36.608Z,15.60
2022-11-19T08:03:36.472Z,16.40
2022-11-19T08:04:36.455Z,15.90
2022-11-19T08:05:36.441Z,16.30
2022-11-19T08:06:36.433Z,15.20
2022-11-19T08:07:36.473Z,14.30
2022-11-19T08:08:36.397Z,15.10
2022-11-19T08:09:36.438Z,15.10
2022-11-19T08:10:36.422Z,14.30
2022-11-19T08:11:36.392Z,14.30
2022-11-19T08:12:36.378Z,14.20
2022-11-19T08:13:36.381Z,14.20
2022-11-19T08:14:36.385Z,15.50
2022-11-19T08:15:36.391Z,14.40
2022-11-19T08:16:36.355Z,15.00
2022-11-19T08:17:36.359Z,14.90
2022-11-19T08:18:36.418Z,15.10
2022-11-19T08:19:36.309Z,14.30
2022-11-19T08:20:36.334Z,14.60
2022-11-19T08:21:36.347Z,13.60
2022-11-19T08:22:36.338Z,13.40
2022-11-19T08:23:36.307Z,13.70
2022-11-19T08:25:08.171Z,14.60
2022-11-19T08:25:36.327Z,15.30
2022-11-19T08:26:36.279Z,15.10
2022-11-19T08:27:36.229Z,15.60
2022-11-19T08:28:36.233Z,13.90
2022-11-19T08:29:36.216Z,13.70
2022-11-19T08:30:36.231Z,16.40
2022-11-19T08:31:36.220Z,14.60
2022-11-19T08:32:36.188Z,14.40
2022-11-19T08:33:36.242Z,15.80
2022-11-19T08:34:36.175Z,15.10
2022-11-19T08:35:36.188Z,14.40
2022-11-19T08:36:36.157Z,15.00
2022-11-19T08:37:36.172Z,14.60
2022-11-19T08:38:38.809Z,14.60
2022-11-19T08:39:37.140Z,15.00
2022-11-19T08:40:36.119Z,18.10
2022-11-19T08:41:36.141Z,18.00
2022-11-19T08:42:36.134Z,18.00
2022-11-19T08:43:36.098Z,17.00
2022-11-19T08:44:36.137Z,15.80
2022-11-19T08:45:36.106Z,16.60
2022-11-19T08:46:36.083Z,14.90
2022-11-19T08:47:36.089Z,15.00
2022-11-19T08:48:36.077Z,14.60
2022-11-19T08:49:36.059Z,14.50
2022-11-19T08:50:36.054Z,13.60
2022-11-19T08:51:36.068Z,16.20
2022-11-19T08:52:36.061Z,16.70
2022-11-19T08:53:36.021Z,16.20
2022-11-19T08:54:36.020Z,15.30
2022-11-19T08:55:36.014Z,16.20
2022-11-19T08:56:36.064Z,17.50
2022-11-19T08:58:07.922Z,17.70
2022-11-19T08:58:36.019Z,17.80
2022-11-19T09:00:07.926Z,15.80
2022-11-19T09:00:36.075Z,17.40
2022-11-19T09:01:35.986Z,15.00
2022-11-19T09:02:36.003Z,14.00
2022-11-19T09:03:35.955Z,13.70
2022-11-19T09:04:35.952Z,15.00
2022-11-19T09:05:35.949Z,13.60
2022-11-19T09:06:35.962Z,14.00
2022-11-19T09:07:35.986Z,13.20
2022-11-19T09:08:35.931Z,14.60
2022-11-19T09:09:35.934Z,15.00
2022-11-19T09:10:35.942Z,15.30
2022-11-19T09:11:41.193Z,14.60
2022-11-19T09:12:37.918Z,13.90
2022-11-19T09:13:35.925Z,13.00
2022-11-19T09:14:35.876Z,13.00
2022-11-19T09:15:35.892Z,13.40
2022-11-19T09:16:35.944Z,13.70
2022-11-19T09:17:35.884Z,12.90
2022-11-19T09:18:35.857Z,14.30
2022-11-19T09:19:35.897Z,13.60
2022-11-19T09:20:35.884Z,15.40
2022-11-19T09:21:35.817Z,14.00
2022-11-19T09:22:35.810Z,13.00
2022-11-19T09:23:35.839Z,12.10
2022-11-19T09:24:35.833Z,12.30
2022-11-19T09:25:35.784Z,13.40
2022-11-19T09:26:35.836Z,14.60
2022-11-19T09:27:35.819Z,13.90
2022-11-19T09:28:35.776Z,14.60
2022-11-19T09:29:35.772Z,13.20
2022-11-19T09:30:35.841Z,13.30
2022-11-19T09:31:35.741Z,14.40
2022-11-19T09:32:35.766Z,13.80
2022-11-19T09:33:35.768Z,13.40
2022-11-19T09:34:35.760Z,13.30
2022-11-19T09:35:35.716Z,14.30
2022-11-19T09:36:35.710Z,13.30
2022-11-19T09:37:35.714Z,12.40
2022-11-19T09:38:35.747Z,13.80
2022-11-19T09:39:35.706Z,13.70
2022-11-19T09:40:36.307Z,13.30
2022-11-19T09:41:35.695Z,13.20
2022-11-19T09:42:35.668Z,13.50
2022-11-19T09:43:35.672Z,13.70
2022-11-19T09:44:35.641Z,13.20
2022-11-19T09:45:35.668Z,13.50
2022-11-19T09:46:35.677Z,13.50
2022-11-19T09:47:35.631Z,13.10
2022-11-19T09:48:35.684Z,12.90
2022-11-19T09:49:35.615Z,13.60
2022-11-19T09:50:35.647Z,13.30
2022-11-19T09:51:35.603Z,13.70
2022-11-19T09:52:35.642Z,12.90
2022-11-19T09:53:35.572Z,13.00
2022-11-19T09:54:35.592Z,13.00
2022-11-19T09:55:35.566Z,13.40
2022-11-19T09:56:35.589Z,13.50
2022-11-19T09:57:35.543Z,12.50
2022-11-19T09:58:35.542Z,14.10
2022-11-19T09:59:35.539Z,13.90
2022-11-19T10:00:35.525Z,13.80
2022-11-19T10:01:35.532Z,12.00
2022-11-19T10:02:35.584Z,15.20
2022-11-19T10:03:35.509Z,14.40
2022-11-19T10:04:35.495Z,14.00
2022-11-19T10:05:35.490Z,14.00
2022-11-19T10:06:35.522Z,15.20
2022-11-19T10:07:35.550Z,12.50
2022-11-19T10:08:35.473Z,13.50
2022-11-19T10:09:35.468Z,13.10
2022-11-19T10:10:35.446Z,13.30
2022-11-19T10:11:35.463Z,14.40
2022-11-19T10:12:35.459Z,13.00
2022-11-19T10:13:35.458Z,14.60
2022-11-19T10:14:35.424Z,13.70
2022-11-19T10:15:37.880Z,14.00
2022-11-19T10:16:36.428Z,13.80
2022-11-19T10:17:35.418Z,14.00
2022-11-19T10:18:35.420Z,15.20
2022-11-19T10:19:35.439Z,13.10
2022-11-19T10:20:35.395Z,13.90
2022-11-19T10:21:35.357Z,14.20
2022-11-19T10:22:35.386Z,15.80
2022-11-19T10:23:36.317Z,15.00
2022-11-19T10:24:36.178Z,14.40
2022-11-19T10:25:35.343Z,12.90
2022-11-19T10:26:35.338Z,14.40
2022-11-19T10:27:35.319Z,14.10
2022-11-19T10:28:35.400Z,14.50
2022-11-19T10:29:35.313Z,13.60
2022-11-19T10:30:35.325Z,13.60
2022-11-19T10:31:35.331Z,15.30
2022-11-19T10:32:35.280Z,13.90
2022-11-19T10:33:35.305Z,13.20
2022-11-19T10:34:35.297Z,14.20
2022-11-19T10:35:35.277Z,13.00
2022-11-19T10:36:35.272Z,14.60
2022-11-19T10:37:35.253Z,14.90
2022-11-19T10:38:35.247Z,13.30
2022-11-19T10:39:35.233Z,13.40
2022-11-19T10:40:35.265Z,14.70
2022-11-19T10:41:35.236Z,14.20
2022-11-19T10:42:35.199Z,14.40
2022-11-19T10:43:35.194Z,13.00
2022-11-19T10:44:35.187Z,13.40
2022-11-19T10:45:35.188Z,13.60
2022-11-19T10:46:35.241Z,13.90
2022-11-19T10:47:35.235Z,13.60
2022-11-19T10:48:35.179Z,15.20
2022-11-19T10:49:35.172Z,13.50
2022-11-19T10:50:35.153Z,13.90
2022-11-19T10:51:35.179Z,13.10
2022-11-19T10:52:35.217Z,14.00
2022-11-19T10:53:35.125Z,13.90
2022-11-19T10:54:35.162Z,13.80
2022-11-19T10:55:35.152Z,14.10
2022-11-19T10:56:35.159Z,14.10
2022-11-19T10:57:35.089Z,14.90
2022-11-19T10:58:35.113Z,15.10
2022-11-19T10:59:35.060Z,14.80
2022-11-19T11:00:35.135Z,14.90
2022-11-19T11:01:35.095Z,14.70
2022-11-19T11:02:35.106Z,14.90
2022-11-19T11:03:35.056Z,15.40
2022-11-19T11:04:35.130Z,15.60
2022-11-19T11:05:35.083Z,15.00
2022-11-19T11:06:35.022Z,14.10
2022-11-19T11:07:35.111Z,15.70
2022-11-19T11:08:35.010Z,14.30
2022-11-19T11:09:35.017Z,14.80
2022-11-19T11:10:35.006Z,14.60
2022-11-19T11:11:35.001Z,14.40
2022-11-19T11:12:35.074Z,12.30
2022-11-19T11:13:34.990Z,14.70
2022-11-19T11:14:34.986Z,14.00
2022-11-19T11:15:34.986Z,14.30
2022-11-19T11:16:37.824Z,14.40
2022-11-19T11:17:35.947Z,13.40
2022-11-19T11:18:34.951Z,13.50
2022-11-19T11:19:34.952Z,14.40
2022-11-19T11:20:34.966Z,14.10
2022-11-19T11:21:34.990Z,14.40
2022-11-19T11:22:34.923Z,14.30
2022-11-19T11:23:34.902Z,14.60
2022-11-19T11:24:34.957Z,15.50
2022-11-19T11:25:34.882Z,14.00
2022-11-19T11:26:34.928Z,14.40
2022-11-19T11:27:35.892Z,14.40
2022-11-19T11:28:34.918Z,15.00
2022-11-19T11:29:34.848Z,14.50
2022-11-19T11:30:35.660Z,13.40
2022-11-19T11:31:34.840Z,14.70
2022-11-19T11:32:34.891Z,14.50
2022-11-19T11:33:34.879Z,14.50
2022-11-19T11:34:34.838Z,14.40
2022-11-19T11:35:34.845Z,14.40
2022-11-19T11:36:34.811Z,14.80
2022-11-19T11:37:34.803Z,13.10
2022-11-19T11:38:34.807Z,13.40
2022-11-19T11:39:34.839Z,14.30
2022-11-19T11:40:34.783Z,14.30
2022-11-19T11:42:36.771Z,14.60
2022-11-19T11:43:34.748Z,14.10
2022-11-19T11:44:34.788Z,14.90
2022-11-19T11:45:34.739Z,16.00
2022-11-19T11:46:34.747Z,13.60
2022-11-19T11:47:34.742Z,14.30
2022-11-19T11:48:34.718Z,14.50
2022-11-19T11:49:34.739Z,15.30
2022-11-19T11:50:34.730Z,15.20
2022-11-19T11:51:34.748Z,15.80
2022-11-19T11:52:34.708Z,14.30
2022-11-19T11:53:34.681Z,16.90
2022-11-19T11:54:36.236Z,15.30
2022-11-19T11:55:34.710Z,15.90
2022-11-19T11:56:34.765Z,14.80
2022-11-19T11:57:34.647Z,14.20
2022-11-19T11:58:34.646Z,15.00
2022-11-19T11:59:34.650Z,12.90
2022-11-19T12:00:34.645Z,13.60
2022-11-19T12:01:34.627Z,13.10
2022-11-19T12:02:34.701Z,12.50
2022-11-19T12:03:49.331Z,11.90
2022-11-19T12:04:35.632Z,13.10
2022-11-19T12:05:34.612Z,14.20
2022-11-19T12:06:34.582Z,13.30
2022-11-19T12:07:34.633Z,13.60
2022-11-19T12:08:34.572Z,13.50
2022-11-19T12:09:34.607Z,13.20
2022-11-19T12:10:34.627Z,14.10
2022-11-19T12:11:34.568Z,13.30
2022-11-19T12:12:35.243Z,12.90
2022-11-19T12:13:34.562Z,13.60
2022-11-19T12:14:34.553Z,14.20
2022-11-19T12:15:34.593Z,14.10
2022-11-19T12:16:34.541Z,12.70
2022-11-19T12:17:34.507Z,13.90
2022-11-19T12:18:34.507Z,13.90
2022-11-19T12:19:34.491Z,14.10
2022-11-19T12:20:34.746Z,14.00
2022-11-19T12:21:34.473Z,13.40
2022-11-19T12:22:34.503Z,14.30
2022-11-19T12:23:34.461Z,14.00
2022-11-19T12:24:34.452Z,13.70
2022-11-19T12:25:34.896Z,13.40
2022-11-19T12:26:34.446Z,13.60
2022-11-19T12:27:34.573Z,13.20
2022-11-19T12:28:34.450Z,12.20
2022-11-19T12:29:34.494Z,13.60
2022-11-19T12:30:34.425Z,13.70
2022-11-19T12:31:34.432Z,13.70
2022-11-19T12:32:34.433Z,13.80
2022-11-19T12:33:34.404Z,13.20
2022-11-19T12:34:34.384Z,12.30
2022-11-19T12:35:34.367Z,11.90
2022-11-19T12:36:34.378Z,11.30
2022-11-19T12:37:34.384Z,12.00
2022-11-19T12:38:34.375Z,11.80
2022-11-19T12:39:34.386Z,12.00
2022-11-19T12:40:40.529Z,11.90
2022-11-19T12:41:36.358Z,10.40
2022-11-19T12:42:34.330Z,12.80
2022-11-19T12:43:34.319Z,12.00
2022-11-19T12:44:34.303Z,12.10
2022-11-19T12:45:34.293Z,13.50
2022-11-19T12:46:34.831Z,13.00
2022-11-19T12:47:34.323Z,13.30
2022-11-19T12:48:34.277Z,12.00
2022-11-19T12:49:34.289Z,12.70
2022-11-19T12:50:34.266Z,13.10
2022-11-19T12:51:34.259Z,12.90
2022-11-19T12:52:34.287Z,13.40
2022-11-19T12:53:34.256Z,12.80
2022-11-19T12:54:35.499Z,12.90
2022-11-19T12:55:35.222Z,13.20
2022-11-19T12:56:34.205Z,14.00
2022-11-19T12:57:35.195Z,13.80
2022-11-19T12:58:34.210Z,13.80
2022-11-19T12:59:34.230Z,13.70
2022-11-19T13:00:39.615Z,13.50
2022-11-19T13:01:36.309Z,13.20
2022-11-19T13:02:34.170Z,14.00
2022-11-19T13:03:34.162Z,13.30
2022-11-19T13:04:34.182Z,13.10
2022-11-19T13:05:34.186Z,13.40
2022-11-19T13:06:34.162Z,12.80
2022-11-19T13:07:34.193Z,13.90
2022-11-19T13:08:34.127Z,12.70
2022-11-19T13:09:34.146Z,13.50